Time;durP1;ratioP1;P1;durP2;ratioP2;P2;SDS_P1;SDS_P2;PMS_P1;PMS_P2;Temp;Humidity;BMP_temperature;BMP_pressure;BME280_temperature;BME280_humidity;BME280_pressure;Samples;Min_cycle;Max_cycle;Signal;HPM_P1;HPM_P2
2022/04/13 00:00:07;;;;;;;21.83;5.57;;;;;;;12.54;71.92;100939.75;5034324;28;20112;-76
2022/04/13 00:02:32;;;;;;;17.25;5.20;;;;;;;12.47;73.03;100941.22;5032566;28;20038;-76
2022/04/13 00:04:57;;;;;;;16.25;4.93;;;;;;;12.43;72.69;100942.47;5041141;28;20028;-76
2022/04/13 00:07:23;;;;;;;19.00;4.78;;;;;;;12.36;73.42;100935.84;5048758;28;20036;-76
2022/04/13 00:09:49;;;;;;;12.43;4.38;;;;;;;12.33;72.84;100945.00;5035524;28;20029;-76
2022/04/13 00:12:14;;;;;;;18.70;5.47;;;;;;;12.28;73.44;100946.34;5031546;28;20053;-76
2022/04/13 00:14:39;;;;;;;18.02;4.78;;;;;;;12.22;73.49;100937.75;5034128;28;20032;-76
2022/04/13 00:17:05;;;;;;;19.75;5.65;;;;;;;12.22;71.98;100951.25;5054546;28;20024;-76
2022/04/13 00:19:30;;;;;;;15.77;4.65;;;;;;;12.20;73.39;100950.50;5054889;28;20029;-76
2022/04/13 00:21:56;;;;;;;17.48;5.18;;;;;;;12.18;73.57;100954.28;5039823;28;20025;-76
2022/04/13 00:24:22;;;;;;;16.65;5.07;;;;;;;12.14;74.28;100953.69;5049553;28;20112;-76
2022/04/13 00:26:47;;;;;;;13.10;4.60;;;;;;;12.12;74.40;100954.78;5041023;28;20127;-76
2022/04/13 00:29:12;;;;;;;18.65;5.68;;;;;;;12.06;74.17;100954.31;5030805;28;20022;-76
2022/04/13 00:31:37;;;;;;;17.58;4.53;;;;;;;12.02;75.14;100955.50;5043693;28;20041;-76
2022/04/13 00:34:03;;;;;;;19.33;5.10;;;;;;;12.03;73.16;100959.06;5038888;28;20040;-76
2022/04/13 00:36:28;;;;;;;18.02;5.43;;;;;;;12.05;73.80;100962.50;5048281;28;20025;-76
2022/04/13 00:38:53;;;;;;;20.05;5.03;;;;;;;12.04;73.61;100958.09;5038269;28;20033;-76
2022/04/13 00:41:21;;;;;;;19.23;5.22;;;;;;;12.04;74.04;100964.31;5043437;28;20472;-76
2022/04/13 00:44:00;;;;;;;17.20;4.93;;;;;;;12.03;73.38;100973.38;5038881;28;20474;-75
2022/04/13 00:46:25;;;;;;;19.08;5.50;;;;;;;12.01;74.76;100969.94;5040953;28;20115;-75
2022/04/13 00:48:51;;;;;;;16.10;5.00;;;;;;;11.99;73.38;100971.91;5053854;28;20073;-75
2022/04/13 00:51:16;;;;;;;18.85;4.57;;;;;;;11.96;74.50;100976.66;5032884;28;20040;-75
2022/04/13 00:53:42;;;;;;;16.33;4.88;;;;;;;11.93;74.33;100982.25;5040208;28;20087;-75
2022/04/13 00:56:09;;;;;;;16.08;5.47;;;;;;;11.89;74.73;100981.66;5034419;28;20076;-75
2022/04/13 00:58:39;;;;;;;17.92;5.82;;;;;;;11.86;74.35;100987.28;5031041;28;20061;-75
2022/04/13 01:01:06;;;;;;;18.85;5.43;;;;;;;11.82;74.94;100988.47;5035696;28;20397;-75
2022/04/13 01:03:36;;;;;;;20.13;5.18;;;;;;;11.79;74.41;100997.66;5042526;28;20072;-75
2022/04/13 01:06:02;;;;;;;21.52;5.93;;;;;;;11.80;75.33;100998.50;5051687;28;20029;-75
2022/04/13 01:08:29;;;;;;;16.35;5.30;;;;;;;11.76;76.33;100994.31;5049650;28;20028;-75
2022/04/13 01:10:55;;;;;;;18.02;5.70;;;;;;;11.77;76.64;100998.72;5039464;28;20080;-75
2022/04/13 01:13:21;;;;;;;15.77;5.38;;;;;;;11.76;75.69;101008.66;5033996;28;20112;-75
2022/04/13 01:15:46;;;;;;;16.77;5.63;;;;;;;11.76;77.09;101003.28;5037349;28;20021;-75
2022/04/13 01:18:13;;;;;;;21.85;6.03;;;;;;;11.76;76.47;101014.03;5050933;28;20473;-75
2022/04/13 01:20:48;;;;;;;20.63;6.53;;;;;;;11.81;75.16;101011.84;5042702;28;20024;-75
2022/04/13 01:23:14;;;;;;;23.10;7.82;;;;;;;11.85;75.33;101021.41;5040272;28;20025;-75
2022/04/13 01:25:47;;;;;;;18.60;6.70;;;;;;;11.90;75.75;101026.44;5048763;28;20044;-75
2022/04/13 01:28:12;;;;;;;22.80;7.57;;;;;;;11.94;75.76;101021.72;5046678;28;20163;-75
2022/04/13 01:30:37;;;;;;;22.27;7.82;;;;;;;11.99;75.01;101025.78;5049138;28;20116;-75
2022/04/13 01:33:03;;;;;;;24.02;8.68;;;;;;;12.03;76.22;101029.09;5032205;28;20025;-75
2022/04/13 01:35:29;;;;;;;19.20;7.20;;;;;;;12.07;75.19;101038.66;5044909;28;20025;-75
2022/04/13 01:37:54;;;;;;;18.02;7.00;;;;;;;12.12;75.75;101035.59;5048393;28;20032;-75
2022/04/13 01:40:19;;;;;;;21.30;8.27;;;;;;;12.14;75.31;101031.81;5039853;28;20029;-75
2022/04/13 01:42:47;;;;;;;25.25;8.23;;;;;;;12.19;75.46;101048.47;5034735;28;20120;-75
2022/04/13 01:45:19;;;;;;;22.05;8.07;;;;;;;12.21;75.54;101046.53;5033586;28;20029;-76
2022/04/13 01:47:45;;;;;;;20.30;8.38;;;;;;;12.24;75.48;101051.69;5064009;28;20119;-76
2022/04/13 01:50:10;;;;;;;22.85;8.18;;;;;;;12.26;75.51;101054.28;5044499;28;20461;-76
2022/04/13 01:52:35;;;;;;;21.23;7.53;;;;;;;12.25;76.09;101052.53;5038844;28;20408;-76
2022/04/13 01:55:00;;;;;;;22.20;9.02;;;;;;;12.27;75.55;101055.13;5047666;28;20359;-76
2022/04/13 01:57:26;;;;;;;20.73;7.95;;;;;;;12.26;75.53;101056.13;5044641;28;20056;-76
2022/04/13 01:59:51;;;;;;;20.60;9.07;;;;;;;12.23;76.67;101057.22;5048137;28;20029;-76
2022/04/13 02:02:16;;;;;;;24.20;7.50;;;;;;;12.22;76.01;101055.47;5039613;28;20473;-76
2022/04/13 02:04:42;;;;;;;23.67;8.65;;;;;;;12.18;76.98;101062.94;5047490;28;20025;-76
2022/04/13 02:07:07;;;;;;;22.45;8.50;;;;;;;12.13;77.72;101062.44;5052395;28;20029;-76
2022/04/13 02:09:32;;;;;;;19.73;7.90;;;;;;;12.03;78.92;101058.72;5045562;28;20030;-76
2022/04/13 02:11:57;;;;;;;22.63;8.93;;;;;;;11.95;78.78;101064.69;5045356;28;20539;-76
2022/04/13 02:14:23;;;;;;;21.60;7.65;;;;;;;11.91;79.23;101076.66;5032974;28;20025;-76
2022/04/13 02:16:48;;;;;;;20.05;8.35;;;;;;;11.85;79.49;101069.88;5044699;28;20594;-76
2022/04/13 02:19:13;;;;;;;23.88;9.32;;;;;;;11.82;79.97;101072.81;5037306;28;20079;-76
2022/04/13 02:21:39;;;;;;;23.80;9.27;;;;;;;11.79;79.91;101072.19;5044698;28;20116;-76
2022/04/13 02:24:05;;;;;;;21.98;8.45;;;;;;;11.75;79.80;101076.94;5035315;28;20033;-76
2022/04/13 02:26:30;;;;;;;21.85;7.57;;;;;;;11.72;79.67;101074.47;5041047;28;20048;-76
2022/04/13 02:28:55;;;;;;;19.30;8.27;;;;;;;11.67;81.48;101079.31;5045648;28;20488;-76
2022/04/13 02:31:21;;;;;;;24.50;9.15;;;;;;;11.64;80.83;101079.56;5043898;28;20364;-76
2022/04/13 02:33:47;;;;;;;21.65;9.40;;;;;;;11.58;81.14;101080.91;5014527;28;20203;-76
2022/04/13 02:36:12;;;;;;;25.60;8.80;;;;;;;11.52;81.09;101086.72;5048721;28;20395;-76
2022/04/13 02:38:38;;;;;;;20.25;8.82;;;;;;;11.47;80.78;101094.28;5040374;28;20034;-76
2022/04/13 02:41:04;;;;;;;19.27;7.43;;;;;;;11.42;81.75;101091.94;5033735;28;20052;-76
2022/04/13 02:43:29;;;;;;;24.10;9.13;;;;;;;11.36;81.63;101087.84;5040047;28;20025;-76
2022/04/13 02:45:55;;;;;;;22.13;8.80;;;;;;;11.33;82.06;101092.56;5047709;28;20028;-76
2022/04/13 02:48:21;;;;;;;22.48;9.25;;;;;;;11.26;82.02;101094.00;5036097;28;20456;-76
2022/04/13 02:50:48;;;;;;;22.42;9.15;;;;;;;11.22;82.11;101095.22;5038381;28;20033;-76
2022/04/13 02:53:14;;;;;;;22.63;8.98;;;;;;;11.12;82.23;101095.84;5049280;28;20033;-76
2022/04/13 02:55:39;;;;;;;22.60;8.85;;;;;;;11.07;82.43;101103.41;5038351;28;20116;-76
2022/04/13 02:58:05;;;;;;;23.45;9.13;;;;;;;10.98;82.87;101096.84;5047797;28;20084;-76
2022/04/13 03:00:30;;;;;;;20.98;8.85;;;;;;;10.93;83.31;101101.69;5051126;28;20499;-76
2022/04/13 03:02:55;;;;;;;19.50;9.48;;;;;;;10.83;83.28;101101.50;5044785;28;20442;-76
2022/04/13 03:05:21;;;;;;;22.60;8.73;;;;;;;10.79;83.44;101099.97;5047406;28;20039;-75
2022/04/13 03:07:46;;;;;;;25.35;8.45;;;;;;;10.71;83.86;101102.34;5051492;28;20033;-75
2022/04/13 03:10:11;;;;;;;22.33;8.85;;;;;;;10.65;84.19;101105.47;5047191;28;20028;-75
2022/04/13 03:12:37;;;;;;;22.27;8.52;;;;;;;10.62;83.98;101105.69;5047698;28;20032;-75
2022/04/13 03:15:06;;;;;;;26.45;8.98;;;;;;;10.54;84.15;101106.22;5047014;28;20148;-75
2022/04/13 03:17:32;;;;;;;22.53;8.30;;;;;;;10.49;84.58;101100.28;5030857;28;20033;-75
2022/04/13 03:19:57;;;;;;;20.50;7.82;;;;;;;10.42;85.10;101091.78;5031776;28;20040;-75
2022/04/13 03:22:24;;;;;;;20.30;7.65;;;;;;;10.39;84.55;101099.19;5038211;28;20029;-75
2022/04/13 03:24:50;;;;;;;21.10;8.52;;;;;;;10.32;84.96;101099.59;5035812;28;20081;-75
2022/04/13 03:27:16;;;;;;;24.70;9.30;;;;;;;10.28;85.43;101100.75;5049733;28;20439;-75
2022/04/13 03:29:41;;;;;;;23.95;9.35;;;;;;;10.23;85.40;101097.50;5038343;28;20029;-75
2022/04/13 03:32:07;;;;;;;21.67;8.50;;;;;;;10.18;85.47;101096.13;5033152;28;20380;-75
2022/04/13 03:34:32;;;;;;;21.45;9.43;;;;;;;10.15;85.87;101094.50;5050735;28;20021;-75
2022/04/13 03:36:57;;;;;;;24.90;8.95;;;;;;;10.10;86.03;101105.56;5047543;28;20024;-75
2022/04/13 03:39:23;;;;;;;25.10;9.52;;;;;;;10.04;86.31;101103.25;5035068;28;20033;-75
2022/04/13 03:41:48;;;;;;;22.17;9.18;;;;;;;9.99;86.81;101110.78;5033375;28;20060;-75
2022/04/13 03:44:14;;;;;;;24.58;8.93;;;;;;;9.95;86.88;101106.56;5035328;28;20381;-75
2022/04/13 03:46:39;;;;;;;24.85;9.82;;;;;;;9.90;87.07;101108.72;5047910;28;20115;-75
2022/04/13 03:49:05;;;;;;;19.63;7.70;;;;;;;9.85;87.13;101110.84;5040997;28;20044;-75
2022/04/13 03:51:30;;;;;;;21.83;9.02;;;;;;;9.77;87.11;101106.81;5035697;28;20527;-75
2022/04/13 03:53:55;;;;;;;21.45;9.25;;;;;;;9.75;87.62;101108.75;5036869;28;20029;-75
2022/04/13 03:56:21;;;;;;;23.10;8.93;;;;;;;9.72;87.74;101114.34;5045206;28;20036;-75
2022/04/13 03:58:46;;;;;;;24.63;8.55;;;;;;;9.70;87.44;101115.38;5047343;28;20121;-75
2022/04/13 04:01:11;;;;;;;24.17;10.10;;;;;;;9.67;87.86;101112.91;5036072;28;20029;-75
2022/04/13 04:03:37;;;;;;;21.95;8.77;;;;;;;9.62;88.14;101127.47;5037330;28;20056;-75
2022/04/13 04:06:03;;;;;;;22.67;9.73;;;;;;;9.58;88.16;101125.09;5045758;28;20126;-75
2022/04/13 04:08:29;;;;;;;23.13;9.23;;;;;;;9.53;88.45;101137.94;5049112;28;20116;-75
2022/04/13 04:10:55;;;;;;;24.55;9.95;;;;;;;9.53;88.82;101136.13;5042301;28;20496;-75
2022/04/13 04:13:21;;;;;;;25.60;9.65;;;;;;;9.52;88.90;101141.59;5048749;28;20029;-75
2022/04/13 04:15:46;;;;;;;23.35;9.52;;;;;;;9.51;89.04;101139.88;5037329;28;20155;-75
2022/04/13 04:18:11;;;;;;;22.35;9.82;;;;;;;9.51;89.17;101142.56;5034620;28;20451;-75
2022/04/13 04:20:36;;;;;;;22.83;10.68;;;;;;;9.52;89.07;101133.56;5044513;28;20037;-75
2022/04/13 04:23:02;;;;;;;24.92;9.90;;;;;;;9.53;89.60;101141.50;5045992;28;20023;-75
2022/04/13 04:25:27;;;;;;;24.45;10.18;;;;;;;9.52;90.01;101147.81;5035497;28;20787;-75
2022/04/13 04:27:52;;;;;;;23.30;11.23;;;;;;;9.56;89.75;101145.78;5043051;28;20159;-75
2022/04/13 04:30:17;;;;;;;23.42;10.23;;;;;;;9.59;90.33;101148.28;5042718;28;20037;-75
2022/04/13 04:32:43;;;;;;;24.50;11.30;;;;;;;9.61;90.05;101149.91;5033297;28;20050;-75
2022/04/13 04:35:08;;;;;;;22.38;9.75;;;;;;;9.65;89.75;101147.91;5036289;28;20126;-75
2022/04/13 04:37:34;;;;;;;24.38;11.27;;;;;;;9.70;90.42;101152.97;5045196;28;20032;-75
2022/04/13 04:39:59;;;;;;;25.13;12.50;;;;;;;9.74;90.55;101163.41;5041813;28;20500;-75
2022/04/13 04:42:25;;;;;;;24.20;11.10;;;;;;;9.80;90.83;101165.69;5046371;28;20033;-75
2022/04/13 04:44:58;;;;;;;25.15;13.02;;;;;;;9.86;91.15;101159.06;5034724;28;20029;-75
2022/04/13 04:47:24;;;;;;;26.65;12.80;;;;;;;9.93;90.82;101172.94;5039472;28;20021;-75
2022/04/13 04:49:49;;;;;;;26.55;14.30;;;;;;;9.97;90.65;101175.31;5037504;28;20566;-75
2022/04/13 04:52:15;;;;;;;25.23;12.90;;;;;;;10.01;90.66;101181.34;5042455;28;20049;-75
2022/04/13 04:54:40;;;;;;;24.60;13.02;;;;;;;10.07;90.62;101186.34;5038558;28;20473;-75
2022/04/13 04:57:05;;;;;;;27.25;12.63;;;;;;;10.12;90.55;101186.88;5038348;28;20033;-75
2022/04/13 04:59:31;;;;;;;25.38;13.55;;;;;;;10.17;90.33;101191.94;5047793;28;20028;-75
2022/04/13 05:01:56;;;;;;;24.70;12.98;;;;;;;10.20;90.16;101185.50;5047555;28;20033;-75
2022/04/13 05:04:22;;;;;;;28.00;13.35;;;;;;;10.22;90.03;101186.25;5037319;28;20029;-75
2022/04/13 05:06:47;;;;;;;28.75;14.18;;;;;;;10.22;90.16;101194.31;5033945;28;20497;-75
2022/04/13 05:09:12;;;;;;;27.20;14.18;;;;;;;10.23;90.22;101194.22;5034061;28;20030;-75
2022/04/13 05:11:37;;;;;;;28.70;15.55;;;;;;;10.28;90.33;101193.94;5052716;28;20071;-75
2022/04/13 05:14:03;;;;;;;27.70;14.27;;;;;;;10.32;90.04;101199.00;5043348;28;20151;-75
2022/04/13 05:16:28;;;;;;;29.48;14.65;;;;;;;10.37;90.41;101198.72;5052377;28;20045;-75
2022/04/13 05:18:53;;;;;;;33.67;16.15;;;;;;;10.41;90.09;101208.28;5038658;28;20057;-75
2022/04/13 05:21:19;;;;;;;27.15;14.85;;;;;;;10.45;89.62;101206.25;5047497;28;20032;-75
2022/04/13 05:23:44;;;;;;;29.55;15.82;;;;;;;10.52;89.76;101209.41;5041850;28;20021;-75
2022/04/13 05:26:10;;;;;;;31.83;17.48;;;;;;;10.57;89.98;101223.38;5041701;28;20431;-74
2022/04/13 05:28:35;;;;;;;30.38;16.90;;;;;;;10.63;89.55;101217.56;5045559;28;20029;-75
2022/04/13 05:31:01;;;;;;;27.73;16.17;;;;;;;10.68;89.19;101220.84;5035294;28;20104;-77
2022/04/13 05:33:26;;;;;;;30.58;17.48;;;;;;;10.74;89.07;101228.47;5032106;28;20489;-75
2022/04/13 05:35:51;;;;;;;31.67;17.20;;;;;;;10.79;88.62;101230.84;5044705;28;20037;-74
2022/04/13 05:38:17;;;;;;;30.85;17.58;;;;;;;10.84;88.66;101234.94;5034473;28;20037;-77
2022/04/13 05:40:43;;;;;;;29.23;15.82;;;;;;;10.90;88.83;101227.44;5044190;28;20504;-78
2022/04/13 05:43:08;;;;;;;28.10;17.10;;;;;;;10.96;88.24;101237.75;5033437;28;20076;-75
2022/04/13 05:45:34;;;;;;;33.80;18.13;;;;;;;11.00;88.27;101231.22;5040198;28;20060;-75
2022/04/13 05:47:59;;;;;;;31.25;18.70;;;;;;;11.06;88.15;101238.00;5048403;28;20033;-76
2022/04/13 05:50:25;;;;;;;33.08;17.42;;;;;;;11.11;88.26;101244.78;5052348;28;20048;-75
2022/04/13 05:52:50;;;;;;;30.00;18.33;;;;;;;11.18;87.64;101242.53;5045373;28;20033;-76
2022/04/13 05:55:15;;;;;;;31.60;18.00;;;;;;;11.25;87.50;101248.34;5046979;28;20037;-75
2022/04/13 05:57:41;;;;;;;31.70;19.02;;;;;;;11.30;87.51;101249.75;5050463;28;20051;-74
2022/04/13 06:00:08;;;;;;;34.00;20.05;;;;;;;11.37;86.76;101244.78;5052880;28;20039;-74
2022/04/13 06:02:37;;;;;;;30.95;18.50;;;;;;;11.44;86.86;101256.84;5043127;28;20484;-76
2022/04/13 06:05:04;;;;;;;29.63;20.02;;;;;;;11.51;86.16;101268.06;5046476;28;20108;-75
2022/04/13 06:07:29;;;;;;;28.50;18.13;;;;;;;11.57;86.23;101259.53;5048738;28;20036;-75
2022/04/13 06:09:55;;;;;;;30.85;18.48;;;;;;;11.62;86.16;101259.19;5064835;28;20033;-76
2022/04/13 06:12:22;;;;;;;36.03;18.77;;;;;;;11.67;85.83;101262.41;5047934;28;20386;-76
2022/04/13 06:14:47;;;;;;;32.92;20.90;;;;;;;11.71;85.72;101267.50;5060388;28;20040;-76
2022/04/13 06:17:12;;;;;;;35.55;20.73;;;;;;;11.74;85.82;101269.06;5046972;28;20343;-76
2022/04/13 06:19:38;;;;;;;35.55;21.40;;;;;;;11.78;85.63;101270.59;5054061;28;20029;-76
2022/04/13 06:22:03;;;;;;;30.83;21.27;;;;;;;11.80;86.13;101279.44;5046742;28;20035;-76
2022/04/13 06:24:28;;;;;;;30.10;20.73;;;;;;;11.84;85.46;101286.28;5044856;28;20494;-76
2022/04/13 06:26:54;;;;;;;32.28;19.92;;;;;;;11.86;85.56;101287.06;5049074;28;20044;-76
2022/04/13 06:29:19;;;;;;;30.52;20.50;;;;;;;11.89;85.00;101281.47;5047155;28;20411;-76
2022/04/13 06:31:44;;;;;;;32.45;20.88;;;;;;;11.91;84.95;101277.81;5047496;28;20035;-76
2022/04/13 06:34:09;;;;;;;35.42;21.80;;;;;;;11.91;85.37;101278.66;5050646;28;20029;-76
2022/04/13 06:36:35;;;;;;;35.35;21.77;;;;;;;11.89;84.94;101277.91;5048713;28;20063;-75
2022/04/13 06:39:00;;;;;;;32.03;20.65;;;;;;;11.89;85.71;101284.16;5046367;28;20048;-75
2022/04/13 06:41:25;;;;;;;32.70;21.30;;;;;;;11.90;85.51;101285.00;5051687;28;20040;-75
2022/04/13 06:43:53;;;;;;;34.03;21.20;;;;;;;11.89;86.05;101289.53;5048972;28;20138;-75
2022/04/13 06:46:19;;;;;;;35.17;21.25;;;;;;;11.91;85.96;101302.91;5041881;28;20098;-75
2022/04/13 06:48:44;;;;;;;35.60;21.88;;;;;;;11.91;86.54;101302.91;5047702;28;20033;-75
2022/04/13 06:51:09;;;;;;;32.67;21.23;;;;;;;11.93;86.35;101309.06;5048832;28;20029;-75
2022/04/13 06:53:35;;;;;;;35.08;21.50;;;;;;;11.99;85.91;101311.31;5050563;28;20056;-78
2022/04/13 06:56:00;;;;;;;31.75;21.73;;;;;;;12.07;86.16;101319.69;5046231;28;20110;-76
2022/04/13 06:58:25;;;;;;;32.00;22.45;;;;;;;12.19;85.28;101328.72;5042990;28;20036;-75
2022/04/13 07:00:50;;;;;;;33.42;21.88;;;;;;;12.31;84.86;101331.50;5045930;28;20024;-76
2022/04/13 07:03:16;;;;;;;32.72;21.67;;;;;;;12.41;84.38;101335.25;5045947;28;20024;-76
2022/04/13 07:05:41;;;;;;;34.95;22.17;;;;;;;12.52;84.84;101339.88;5044614;28;20162;-76
2022/04/13 07:08:07;;;;;;;39.88;21.40;;;;;;;12.56;84.03;101339.53;5048755;28;20473;-76
2022/04/13 07:10:33;;;;;;;33.55;21.98;;;;;;;12.61;83.84;101339.19;5030070;28;20523;-76
2022/04/13 07:12:59;;;;;;;34.47;20.42;;;;;;;12.63;83.85;101348.00;5050010;28;20037;-76
2022/04/13 07:15:25;;;;;;;33.58;21.92;;;;;;;12.66;83.98;101353.16;5060598;28;20039;-76
2022/04/13 07:17:50;;;;;;;33.30;20.85;;;;;;;12.71;83.90;101350.16;5060883;28;20037;-76
2022/04/13 07:20:17;;;;;;;30.70;21.40;;;;;;;12.76;84.55;101361.44;5064340;28;20468;-76
2022/04/13 07:22:53;;;;;;;34.05;21.42;;;;;;;12.82;83.78;101363.69;5068398;28;20024;-76
2022/04/13 07:25:18;;;;;;;31.83;19.50;;;;;;;12.88;83.45;101362.38;5057067;28;20090;-76
2022/04/13 07:27:45;;;;;;;29.75;19.50;;;;;;;12.90;83.70;101361.28;5060297;28;20481;-76
2022/04/13 07:30:11;;;;;;;30.92;20.77;;;;;;;12.91;82.99;101365.72;5069533;28;20063;-76
2022/04/13 07:32:37;;;;;;;34.30;21.13;;;;;;;12.92;83.52;101377.34;5064095;28;20116;-76
2022/04/13 07:35:05;;;;;;;33.78;21.88;;;;;;;12.96;84.18;101380.66;5049614;28;20120;-76
2022/04/13 07:37:33;;;;;;;31.63;20.40;;;;;;;12.97;83.20;101377.00;5045233;28;20036;-76
2022/04/13 07:39:59;;;;;;;34.13;20.63;;;;;;;12.98;83.21;101374.19;5048148;28;20021;-75
2022/04/13 07:42:26;;;;;;;32.30;20.55;;;;;;;13.01;82.91;101373.94;5048801;28;20032;-75
2022/04/13 07:44:52;;;;;;;36.13;21.38;;;;;;;13.02;82.89;101372.97;5049818;28;20029;-75
2022/04/13 07:47:19;;;;;;;32.08;20.92;;;;;;;13.06;83.31;101376.31;5050755;28;20420;-75
2022/04/13 07:49:46;;;;;;;33.92;21.80;;;;;;;13.06;83.45;101382.56;5064477;28;20511;-75
2022/04/13 07:52:12;;;;;;;32.95;19.30;;;;;;;13.11;82.78;101376.81;5047529;28;20392;-76
2022/04/13 07:54:37;;;;;;;34.58;19.85;;;;;;;13.18;83.79;101382.63;5046268;28;20032;-76
2022/04/13 07:57:03;;;;;;;32.90;19.02;;;;;;;13.22;84.33;101376.88;5049283;28;20028;-76
2022/04/13 07:59:29;;;;;;;30.92;19.27;;;;;;;13.26;82.98;101385.59;5047867;28;20435;-76
2022/04/13 08:01:54;;;;;;;33.47;19.30;;;;;;;13.32;83.75;101387.81;5048224;28;20104;-76
2022/04/13 08:04:19;;;;;;;29.80;17.67;;;;;;;13.38;82.39;101391.91;5047485;28;20086;-76
2022/04/13 08:06:45;;;;;;;35.20;19.67;;;;;;;13.44;82.41;101395.03;5045970;28;20488;-76
2022/04/13 08:09:10;;;;;;;31.83;18.83;;;;;;;13.54;82.44;101402.41;5050292;28;20029;-76
2022/04/13 08:11:35;;;;;;;39.78;20.30;;;;;;;13.59;82.09;101394.81;5051725;28;20136;-76
2022/04/13 08:14:00;;;;;;;35.35;19.27;;;;;;;13.64;81.94;101396.16;5053371;28;20017;-76
2022/04/13 08:16:26;;;;;;;31.30;17.38;;;;;;;13.72;81.45;101395.59;5053147;28;20036;-76
2022/04/13 08:18:51;;;;;;;29.95;15.88;;;;;;;13.77;80.59;101397.94;5059706;28;20526;-76
2022/04/13 08:21:16;;;;;;;31.85;17.08;;;;;;;13.83;80.58;101408.25;5053320;28;20025;-76
2022/04/13 08:23:42;;;;;;;28.02;15.88;;;;;;;13.86;80.51;101399.91;5052739;28;20427;-76
2022/04/13 08:26:07;;;;;;;27.38;15.32;;;;;;;13.90;79.98;101408.63;5063865;28;20024;-76
2022/04/13 08:28:32;;;;;;;30.65;12.93;;;;;;;13.94;79.83;101412.81;5051862;28;20025;-76
2022/04/13 08:30:58;;;;;;;26.25;14.48;;;;;;;13.97;79.98;101412.59;5051754;28;20655;-76
2022/04/13 08:33:24;;;;;;;29.35;15.13;;;;;;;13.98;79.96;101412.47;5048099;28;20104;-76
2022/04/13 08:35:49;;;;;;;29.92;14.07;;;;;;;14.01;79.78;101407.78;5047246;28;20440;-76
2022/04/13 08:38:15;;;;;;;31.10;13.85;;;;;;;14.02;79.47;101418.47;5050196;28;20086;-76
2022/04/13 08:40:56;;;;;;;28.80;13.85;;;;;;;14.01;79.58;101410.50;5051714;28;20571;-76
2022/04/13 08:43:26;;;;;;;28.58;13.88;;;;;;;14.05;79.69;101422.78;5052107;28;20067;-76
2022/04/13 08:45:57;;;;;;;27.48;14.85;;;;;;;14.12;80.19;101424.03;5050489;28;20441;-76
2022/04/13 08:48:25;;;;;;;26.50;13.90;;;;;;;14.17;79.18;101419.09;5051184;28;20040;-76
2022/04/13 08:50:59;;;;;;;24.73;12.85;;;;;;;14.24;78.54;101420.31;5049895;28;20028;-76
2022/04/13 08:53:28;;;;;;;27.48;14.80;;;;;;;14.30;78.36;101427.09;5052599;28;20028;-76
2022/04/13 08:55:54;;;;;;;30.75;16.30;;;;;;;14.37;78.55;101424.78;5051485;28;20404;-76
2022/04/13 08:58:37;;;;;;;31.00;17.05;;;;;;;14.45;78.77;101425.88;5051684;28;20044;-76
2022/04/13 09:01:10;;;;;;;28.50;16.02;;;;;;;14.52;77.50;101428.94;5050459;28;20056;-76
2022/04/13 09:03:43;;;;;;;30.45;17.45;;;;;;;14.63;77.47;101434.38;5051993;28;20449;-76
2022/04/13 09:06:10;;;;;;;30.10;16.75;;;;;;;14.78;78.03;101437.66;5057293;28;20099;-76
2022/04/13 09:08:49;;;;;;;28.60;15.18;;;;;;;14.85;77.17;101435.31;5054941;28;20109;-76
2022/04/13 09:11:14;;;;;;;27.85;14.95;;;;;;;14.97;77.75;101445.13;5049224;28;20496;-76
2022/04/13 09:13:40;;;;;;;29.05;15.63;;;;;;;15.06;77.83;101439.94;5049942;28;20083;-76
2022/04/13 09:16:05;;;;;;;26.33;14.95;;;;;;;15.06;76.31;101445.38;5052518;28;20086;-76
2022/04/13 09:18:31;;;;;;;27.63;15.43;;;;;;;15.16;75.60;101446.31;5061084;28;20029;-76
2022/04/13 09:20:56;;;;;;;26.95;15.25;;;;;;;15.18;75.20;101452.44;5042387;28;20041;-76
2022/04/13 09:23:22;;;;;;;27.25;14.15;;;;;;;15.24;74.60;101453.78;5046923;28;20426;-76
2022/04/13 09:25:51;;;;;;;30.08;14.32;;;;;;;15.28;74.71;101457.97;5051711;28;20032;-76
2022/04/13 09:28:16;;;;;;;29.93;15.87;;;;;;;15.32;75.03;101460.28;5043286;28;20032;-76
2022/04/13 09:30:42;;;;;;;29.45;14.45;;;;;;;15.33;75.06;101466.56;5051998;28;20045;-76
2022/04/13 09:33:07;;;;;;;26.90;13.98;;;;;;;15.30;74.04;101467.69;5051056;28;20055;-76
2022/04/13 09:35:35;;;;;;;26.15;14.50;;;;;;;15.30;73.83;101472.22;5052104;28;20485;-76
2022/04/13 09:38:02;;;;;;;25.63;13.80;;;;;;;15.31;74.06;101477.53;5050447;28;20025;-76
2022/04/13 09:40:38;;;;;;;28.17;15.15;;;;;;;15.32;73.87;101473.81;5050263;28;20059;-76
2022/04/13 09:43:05;;;;;;;29.98;17.58;;;;;;;15.32;73.65;101473.81;5052110;28;20032;-76
2022/04/13 09:45:36;;;;;;;31.48;17.02;;;;;;;15.36;73.69;101490.69;5072484;28;20025;-76
2022/04/13 09:48:05;;;;;;;28.45;18.13;;;;;;;15.34;73.60;101488.13;5056756;28;20100;-76
2022/04/13 09:50:31;;;;;;;26.70;16.33;;;;;;;15.37;73.70;101485.16;5036817;28;20037;-76
2022/04/13 09:52:57;;;;;;;27.33;15.82;;;;;;;15.41;73.86;101480.31;5042347;28;20057;-76
2022/04/13 09:55:25;;;;;;;33.63;17.92;;;;;;;15.40;73.90;101485.88;5036974;28;20025;-76
2022/04/13 09:57:50;;;;;;;27.77;15.70;;;;;;;15.44;73.77;101481.94;5037862;28;20037;-76
2022/04/13 10:00:16;;;;;;;27.92;17.02;;;;;;;15.45;74.52;101489.91;5048489;28;20124;-78
2022/04/13 10:02:42;;;;;;;29.20;16.38;;;;;;;15.43;73.90;101488.31;5040796;28;20025;-76
2022/04/13 10:05:18;;;;;;;30.25;18.20;;;;;;;15.41;74.16;101482.19;5034249;28;20022;-75
2022/04/13 10:07:43;;;;;;;27.75;16.30;;;;;;;15.41;74.72;101495.72;5037681;28;20380;-76
2022/04/13 10:10:26;;;;;;;27.42;16.50;;;;;;;15.36;73.92;101491.56;5052952;28;20025;-76
2022/04/13 10:12:52;;;;;;;29.42;17.00;;;;;;;15.26;73.47;101489.75;5059914;28;20044;-76
2022/04/13 10:15:17;;;;;;;28.83;16.77;;;;;;;15.21;74.57;101490.09;5041456;28;20075;-76
2022/04/13 10:17:43;;;;;;;31.80;17.25;;;;;;;15.19;75.43;101492.09;5051330;28;20022;-76
2022/04/13 10:20:08;;;;;;;31.58;16.48;;;;;;;15.14;75.04;101488.88;5042492;28;20037;-76
2022/04/13 10:22:34;;;;;;;27.38;15.50;;;;;;;15.10;75.04;101484.75;5040216;28;20025;-76
2022/04/13 10:25:20;;;;;;;30.77;15.80;;;;;;;15.08;75.24;101489.41;5043711;28;20033;-76
2022/04/13 10:28:19;;;;;;;31.58;15.50;;;;;;;15.03;75.18;101490.63;5041152;28;20405;-76
2022/04/13 10:30:45;;;;;;;30.52;16.67;;;;;;;15.01;75.14;101491.78;5048646;28;20150;-76
2022/04/13 10:33:12;;;;;;;31.77;18.23;;;;;;;15.02;75.69;101502.47;5033000;28;20057;-76
2022/04/13 10:35:39;;;;;;;27.23;16.92;;;;;;;15.03;76.02;101501.47;5031165;28;20087;-76
2022/04/13 10:38:06;;;;;;;30.00;16.92;;;;;;;15.06;76.11;101504.91;5035937;28;20035;-76
2022/04/13 10:40:33;;;;;;;30.63;18.60;;;;;;;15.03;75.92;101504.16;5036214;28;20040;-76
2022/04/13 10:43:03;;;;;;;30.50;18.50;;;;;;;15.03;75.93;101512.28;5034372;28;20086;-76
2022/04/13 10:45:29;;;;;;;;;;;;;;;15.07;75.82;101506.66;5032989;28;20064;-76
2022/04/13 10:48:06;;;;;;;32.22;19.40;;;;;;;15.08;76.41;101508.34;5032741;28;19952;-76
2022/04/13 10:50:54;;;;;;;33.38;18.88;;;;;;;15.12;76.05;101521.50;5032172;28;20440;-76
2022/04/13 10:53:24;;;;;;;33.90;22.75;;;;;;;15.16;77.35;101514.84;5043427;28;20087;-76
2022/04/13 10:56:04;;;;;;;34.88;22.33;;;;;;;15.17;77.65;101523.84;5050937;28;20031;-76
2022/04/13 10:58:51;;;;;;;34.42;22.98;;;;;;;15.11;77.70;101525.22;5052087;28;20032;-76
2022/04/13 11:01:19;;;;;;;35.70;25.67;;;;;;;15.02;79.26;101525.94;5045474;28;20389;-76
2022/04/13 11:03:46;;;;;;;40.20;23.58;;;;;;;14.97;80.52;101537.16;5038365;28;20100;-75
2022/04/13 11:06:11;;;;;;;35.65;23.73;;;;;;;14.87;79.85;101528.06;5040312;28;20064;-75
2022/04/13 11:08:56;;;;;;;37.38;24.40;;;;;;;14.85;79.37;101536.31;5037761;28;20493;-75
2022/04/13 11:11:24;;;;;;;36.63;24.77;;;;;;;14.79;78.98;101530.53;5030358;28;20061;-75